You are not logged in, Click here to log in

Flight OZJ777

  • Airlines / 航空公司: OZJ777
  • Flown By / 飛行員: Stone Chang
  • Departure Airport / 出發機場: 臺灣桃園國際機場TPE
  • Arrival Airport / 到達機場: 臺北松山機場TSA
  • Aircraft Flown / 機型: J330-243
  • Aircraft Registration / 編號: B16309
  • Flight Distance / 距離: 17 Nautical Miles
  • Flight Time / 飛行時間: 00.09.37
  • Flight Level / 巡航高度: 2500 ft
  • ACARS / 航機通信定址與報告系統: kACARSII
  • Flight Type / 類別: Passenger / 客機
  • Touchdown / 觸地率: -287.59 ft/min
  • Date Submitted / 航班完成: 08/06/2017 11:44:17pm
  • Flight Status / 狀態: Landed at 23:49z and Was On Time
  • Route / 航道: DCT
Flight Details
Gross Revenue / 航班收入:
(Load=302 units, either pax or lbs of cargo, @ $ 17.00 per unit)
$ 5, 134.00
Fuel Cost / 燃料支出:
(1025.12 kg of fuel used @ $ 0.54 per pound)
$ 553.56
Pilot Pay / 終點工資:
(This pilot earns $ 350.00 p/hr)
$ 31.50
Expense / 其他支出:
$ 4, 107.20
Net Revenue / 航班收入:
$ 441.74

ACARS Scoring System:

Airport METAR :

FS[15:38] METAR: RCTP 061500Z 22008KT 9999 FEW020 29/26 Q1004 NOSIG RMK A2966
FS[15:44] METAR: RCSS 061500Z 28006KT 9999 FEW025 SCT100 BKN250 31/26 Q1004 NOSIG RMK A2965

Deduction :

FS[15:35] Score Triggered - Taxi Speed | Threshold: 30 | Actual: 38 knots | Value: -5 | Delay: 5
FS[15:36] Score Triggered - Taxi Speed | Threshold: 30 | Actual: 40 knots | Value: -5 | Delay: 5
FS[15:38] Score Triggered - Light Beacon | Value: -5 | Delay: 0
FS[15:45] Score Triggered - Taxi Speed | Threshold: 30 | Actual: 38 knots | Value: -5 | Delay: 5

Score :

FS[15:47] Final Score: 80

Additional Log Information:

檢視資料 / View Log

Route Map